Park City, Kentucky
Current Conditions -  °F | °C
As of 1:10 PM on Saturday 20 Dec 2014 (Local Time) from KGLW Reporting Station
Overcast Overcast  
Wind Chill: 42°   Ceiling: 5000
Heat Index: 42°   Visibility: 10mi
Dew Point: 27°   Wind: 3mph
Humidity: 57%   Direction: 330°NNW
Pressure: 30.22"   Gusts: NA
Location:  37.09°N, 86.05°W
Report Text: KGLW 201910Z AUTO 33003KT 10SM OVC050 05/M03 A3022 RMK AO2 T00541026
Loading
Personal Weather Stations






























Interactive Weather Map New forecast layout! Learn more

10-Day Weather Forecast

Advertisements
Track Severe Weather on mobile